Time;durP1;ratioP1;P1;durP2;ratioP2;P2;SDS_P1;SDS_P2;PMS_P1;PMS_P2;Temp;Humidity;BMP_temperature;BMP_pressure;BME280_temperature;BME280_humidity;BME280_pressure;Samples;Min_cycle;Max_cycle;Signal;HPM_P1;HPM_P2
2022/12/09 15:00:39;;;;;;;20.10;8.77;;;2.50;99.90;;;;;;5106598;27;20362;-62
2022/12/09 15:03:16;;;;;;;21.58;11.00;;;2.50;99.90;;;;;;5106683;28;20022;-62
2022/12/09 15:06:00;;;;;;;18.92;10.25;;;2.50;99.90;;;;;;5105444;28;20476;-62
2022/12/09 15:08:31;;;;;;;19.98;9.75;;;2.50;99.90;;;;;;5087193;28;20023;-64
2022/12/09 15:10:58;;;;;;;24.38;10.00;;;2.60;99.90;;;;;;5105189;28;20023;-63
2022/12/09 15:13:25;;;;;;;20.48;9.88;;;2.70;99.90;;;;;;5107427;28;20047;-64
2022/12/09 15:15:51;;;;;;;22.10;9.23;;;2.70;99.90;;;;;;5088261;28;20047;-64
2022/12/09 15:18:22;;;;;;;19.23;9.38;;;2.70;99.90;;;;;;5107427;28;20028;-64
2022/12/09 15:20:54;;;;;;;20.13;10.30;;;2.80;99.90;;;;;;5106740;28;20031;-64
2022/12/09 15:23:24;;;;;;;20.35;9.73;;;2.80;99.90;;;;;;5107426;28;20012;-63
2022/12/09 15:25:56;;;;;;;20.80;10.17;;;2.80;99.90;;;;;;5105425;28;20042;-64
2022/12/09 15:28:24;;;;;;;22.23;10.15;;;2.80;99.90;;;;;;5107008;28;20442;-64
2022/12/09 15:31:02;;;;;;;19.00;10.48;;;2.80;99.90;;;;;;5107990;28;20197;-65
2022/12/09 15:33:36;;;;;;;21.30;9.68;;;2.80;99.90;;;;;;5107470;28;20407;-63
2022/12/09 15:36:15;;;;;;;18.80;10.40;;;2.80;99.90;;;;;;5107423;28;20403;-64
2022/12/09 15:38:53;;;;;;;24.25;10.75;;;2.70;99.90;;;;;;5106382;28;20016;-62
2022/12/09 15:44:10;;;;;;;19.65;10.18;;;2.70;99.90;;;;;;5106401;28;20440;-65
2022/12/09 15:46:39;;;;;;;21.60;9.55;;;2.70;99.90;;;;;;5105344;28;20047;-65
2022/12/09 15:49:08;;;;;;;17.27;10.10;;;2.60;99.90;;;;;;5105027;28;20022;-62
2022/12/09 15:51:36;;;;;;;20.65;10.20;;;2.60;99.90;;;;;;5107824;28;20055;-64
2022/12/09 15:54:07;;;;;;;19.83;9.85;;;2.60;99.90;;;;;;5107537;28;20038;-64
2022/12/09 15:56:42;;;;;;;26.17;11.18;;;2.50;99.90;;;;;;5106510;28;20023;-65
2022/12/09 15:59:25;;;;;;;20.70;8.98;;;2.50;99.90;;;;;;5086879;28;20050;-65
2022/12/09 16:01:53;;;;;;;20.65;9.15;;;2.50;99.90;;;;;;5105445;28;20058;-63
2022/12/09 16:04:23;;;;;;;21.77;10.30;;;2.50;99.90;;;;;;5106395;28;20102;-65
2022/12/09 16:06:49;;;;;;;22.75;10.45;;;2.50;99.90;;;;;;5107561;28;20053;-65
2022/12/09 16:09:20;;;;;;;19.50;10.13;;;2.50;99.90;;;;;;5107469;28;20567;-61
2022/12/09 16:11:48;;;;;;;26.70;10.40;;;2.40;99.90;;;;;;5093878;28;20034;-65
2022/12/09 16:14:16;;;;;;;18.02;9.50;;;2.50;99.90;;;;;;5094723;28;20099;-64
2022/12/09 16:16:48;;;;;;;16.35;8.52;;;2.50;99.90;;;;;;5094127;28;20024;-66
2022/12/09 16:19:33;;;;;;;26.08;10.73;;;2.50;99.90;;;;;;5094074;28;20126;-65
2022/12/09 16:22:06;;;;;;;23.25;10.55;;;2.50;99.90;;;;;;5094152;28;20081;-64
2022/12/09 16:24:33;;;;;;;19.48;10.52;;;2.50;99.90;;;;;;5087148;28;20133;-65
2022/12/09 16:27:03;;;;;;;21.05;10.32;;;2.50;99.90;;;;;;5093830;28;20035;-66
2022/12/09 16:29:35;;;;;;;23.52;11.77;;;2.60;99.90;;;;;;5092885;28;20020;-65
2022/12/09 16:32:30;;;;;;;20.05;10.38;;;2.60;99.90;;;;;;5093327;28;20028;-66
2022/12/09 16:35:11;;;;;;;22.75;11.00;;;2.60;99.90;;;;;;5068607;28;20066;-66
2022/12/09 16:37:40;;;;;;;19.55;9.63;;;2.60;99.90;;;;;;5093844;28;20024;-62
2022/12/09 16:40:30;;;;;;;22.67;10.75;;;2.50;99.90;;;;;;5093477;28;20028;-66
2022/12/09 16:43:14;;;;;;;33.47;14.32;;;2.50;99.90;;;;;;5056817;28;20072;-67
2022/12/09 16:45:41;;;;;;;25.92;13.63;;;2.40;99.90;;;;;;5093065;28;20056;-64
2022/12/09 16:48:08;;;;;;;36.95;15.43;;;2.50;99.90;;;;;;5094073;28;20016;-66
2022/12/09 16:50:37;;;;;;;30.55;14.60;;;2.40;99.90;;;;;;5093251;28;20030;-65
2022/12/09 16:53:11;;;;;;;51.15;25.35;;;2.40;99.90;;;;;;5093163;28;20089;-66
2022/12/09 16:55:37;;;;;;;56.20;26.95;;;2.40;99.90;;;;;;5092920;28;20411;-66
2022/12/09 16:58:03;;;;;;;48.58;26.05;;;2.30;99.90;;;;;;5093186;28;20039;-68
2022/12/09 17:00:29;;;;;;;49.90;25.48;;;2.20;99.90;;;;;;5092722;28;20028;-66
2022/12/09 17:02:57;;;;;;;47.28;24.73;;;2.20;99.90;;;;;;5093179;28;20377;-67
2022/12/09 17:05:23;;;;;;;43.92;23.23;;;2.10;99.90;;;;;;5074555;28;20429;-67
2022/12/09 17:07:49;;;;;;;37.58;19.05;;;2.00;99.90;;;;;;5092574;28;20100;-68
2022/12/09 17:10:15;;;;;;;36.33;17.35;;;1.90;99.90;;;;;;5075045;28;20028;-67
2022/12/09 17:12:42;;;;;;;36.45;15.55;;;1.90;99.90;;;;;;5092727;28;20117;-67
2022/12/09 17:15:12;;;;;;;28.08;13.20;;;1.80;99.90;;;;;;5092406;28;20028;-67
2022/12/09 17:17:38;;;;;;;25.48;12.52;;;1.70;99.90;;;;;;5092983;28;20028;-67
2022/12/09 17:20:05;;;;;;;24.20;12.07;;;1.60;99.90;;;;;;5092876;28;20039;-67
2022/12/09 17:22:30;;;;;;;25.95;12.27;;;1.50;99.90;;;;;;5072521;28;20461;-66
2022/12/09 17:24:56;;;;;;;24.90;12.38;;;1.40;99.90;;;;;;5093217;28;20028;-67
2022/12/09 17:27:22;;;;;;;31.02;12.77;;;1.30;99.90;;;;;;5091957;28;20085;-67
2022/12/09 17:29:47;;;;;;;26.92;12.70;;;1.20;99.90;;;;;;5093277;28;20379;-67
2022/12/09 17:32:13;;;;;;;19.70;10.90;;;1.10;99.90;;;;;;5092965;28;20461;-63
2022/12/09 17:34:39;;;;;;;23.42;12.85;;;1.10;99.90;;;;;;5091622;28;20077;-68
2022/12/09 17:37:05;;;;;;;25.98;13.38;;;1.00;99.90;;;;;;5092670;28;21019;-66
2022/12/09 17:39:31;;;;;;;26.75;13.95;;;0.90;99.90;;;;;;5091945;28;20039;-64
2022/12/09 17:41:56;;;;;;;25.75;13.90;;;0.90;99.90;;;;;;5091721;28;20020;-66
2022/12/09 17:44:22;;;;;;;25.65;13.15;;;0.80;99.90;;;;;;5092037;28;20447;-61
2022/12/09 17:46:49;;;;;;;25.17;12.50;;;0.70;99.90;;;;;;5092454;28;20036;-62
2022/12/09 17:49:16;;;;;;;26.73;12.55;;;0.70;99.90;;;;;;5073057;28;20032;-63
2022/12/09 17:51:41;;;;;;;25.35;13.63;;;0.70;99.90;;;;;;5091986;28;20020;-60
2022/12/09 17:54:07;;;;;;;20.30;11.23;;;0.60;99.90;;;;;;5092027;28;20369;-60
2022/12/09 17:56:33;;;;;;;23.98;12.75;;;0.60;99.90;;;;;;5073069;28;20029;-61
2022/12/09 17:59:06;;;;;;;22.90;12.10;;;0.60;99.90;;;;;;5091870;28;20040;-60
2022/12/09 18:01:32;;;;;;;24.13;11.43;;;0.60;99.90;;;;;;5091823;28;20105;-62
2022/12/09 18:03:59;;;;;;;25.58;13.73;;;0.50;99.90;;;;;;5091202;28;20023;-61
2022/12/09 18:06:25;;;;;;;38.65;18.85;;;0.50;99.90;;;;;;5087484;28;20027;-60
2022/12/09 18:08:51;;;;;;;48.70;22.77;;;0.40;99.90;;;;;;5089184;28;20102;-61
2022/12/09 18:11:17;;;;;;;29.52;15.80;;;0.40;99.90;;;;;;5089067;28;20134;-61
2022/12/09 18:13:43;;;;;;;29.88;12.95;;;0.30;99.90;;;;;;5089786;28;20032;-61
2022/12/09 18:16:10;;;;;;;25.60;12.02;;;0.20;99.90;;;;;;5090183;28;20022;-60
2022/12/09 18:18:37;;;;;;;25.20;12.43;;;0.10;99.90;;;;;;5088655;28;20392;-60
2022/12/09 18:21:04;;;;;;;23.20;11.90;;;0.00;99.90;;;;;;5089413;28;20103;-62
2022/12/09 18:23:30;;;;;;;24.73;12.45;;;-0.10;99.90;;;;;;5089554;28;20444;-62
2022/12/09 18:25:56;;;;;;;24.15;11.80;;;-0.10;99.90;;;;;;5087406;28;20019;-61
2022/12/09 18:28:26;;;;;;;22.85;10.88;;;-0.20;99.90;;;;;;5089312;28;20492;-61
2022/12/09 18:30:55;;;;;;;29.52;13.13;;;-0.30;99.90;;;;;;5089007;28;20095;-61
2022/12/09 18:33:22;;;;;;;27.42;12.70;;;-0.40;99.90;;;;;;5086317;28;20089;-61
2022/12/09 18:35:48;;;;;;;22.95;12.98;;;-0.50;99.90;;;;;;5089495;28;20024;-62
2022/12/09 18:38:15;;;;;;;32.08;14.27;;;-0.50;99.90;;;;;;5070482;28;20016;-60
2022/12/09 18:41:00;;;;;;;30.85;14.90;;;-0.60;99.90;;;;;;5088748;28;20761;-62
2022/12/09 18:43:35;;;;;;;32.97;14.65;;;-0.60;99.90;;;;;;5087720;28;20020;-61
2022/12/09 18:46:13;;;;;;;33.78;15.65;;;-0.60;99.90;;;;;;5086124;28;20504;-63
2022/12/09 18:48:39;;;;;;;35.22;15.88;;;-0.60;99.90;;;;;;5087549;28;20039;-62
2022/12/09 18:51:07;;;;;;;29.92;14.68;;;-0.60;99.90;;;;;;5089414;28;20469;-64
2022/12/09 18:53:33;;;;;;;34.13;16.13;;;-0.60;99.90;;;;;;5088477;28;20095;-62
2022/12/09 18:56:03;;;;;;;34.58;15.32;;;-0.60;99.90;;;;;;5090143;28;20096;-63
2022/12/09 18:58:29;;;;;;;35.00;17.52;;;-0.60;99.90;;;;;;5085706;28;20043;-60
2022/12/09 19:00:55;;;;;;;31.60;15.70;;;-0.60;99.90;;;;;;5088704;28;20035;-63
2022/12/09 19:03:21;;;;;;;39.35;18.00;;;-0.60;99.90;;;;;;5089050;28;20373;-61
2022/12/09 19:05:46;;;;;;;37.45;18.48;;;-0.60;99.90;;;;;;5089020;28;20433;-64
2022/12/09 19:08:12;;;;;;;38.33;18.20;;;-0.60;99.90;;;;;;5089113;28;20099;-62
2022/12/09 19:10:38;;;;;;;37.42;16.88;;;-0.60;99.90;;;;;;5090094;28;20032;-61
2022/12/09 19:13:04;;;;;;;37.08;19.00;;;-0.70;99.90;;;;;;5090390;28;20032;-62
2022/12/09 19:15:30;;;;;;;37.47;17.10;;;-0.70;99.90;;;;;;5089918;28;20131;-63
2022/12/09 19:17:55;;;;;;;38.67;17.48;;;-0.70;99.90;;;;;;5091030;28;20020;-65
2022/12/09 19:20:22;;;;;;;40.08;19.30;;;-0.70;99.90;;;;;;5089938;28;20476;-61
2022/12/09 19:22:48;;;;;;;38.45;17.67;;;-0.70;99.90;;;;;;5072580;28;20105;-63
2022/12/09 19:25:14;;;;;;;36.25;16.08;;;-0.70;99.90;;;;;;5091113;28;20465;-61
2022/12/09 19:27:39;;;;;;;33.05;15.50;;;-0.70;99.90;;;;;;5089579;28;20016;-60
2022/12/09 19:30:06;;;;;;;33.50;16.52;;;-0.70;99.90;;;;;;5090678;28;20426;-60
2022/12/09 19:32:31;;;;;;;35.25;16.98;;;-0.70;99.90;;;;;;5086963;28;20578;-62
2022/12/09 19:34:57;;;;;;;33.25;16.17;;;-0.70;99.90;;;;;;5087800;28;20129;-60
2022/12/09 19:37:23;;;;;;;35.30;16.30;;;-0.70;99.90;;;;;;5069747;28;20024;-60
2022/12/09 19:39:49;;;;;;;32.85;16.10;;;-0.70;99.90;;;;;;5088362;28;20524;-62
2022/12/09 19:42:15;;;;;;;33.92;14.65;;;-0.70;99.90;;;;;;5087941;28;20385;-60
2022/12/09 19:44:40;;;;;;;31.20;14.07;;;-0.70;99.90;;;;;;5088209;28;20047;-61
2022/12/09 19:47:06;;;;;;;34.42;14.90;;;-0.80;99.90;;;;;;5073395;28;20020;-60
2022/12/09 19:49:32;;;;;;;32.17;15.23;;;-0.80;99.90;;;;;;5088553;28;20367;-61
2022/12/09 19:51:58;;;;;;;31.50;15.70;;;-0.80;99.90;;;;;;5092246;28;20020;-60
2022/12/09 19:54:26;;;;;;;34.67;16.50;;;-0.80;99.90;;;;;;5091789;28;20067;-60
2022/12/09 19:56:52;;;;;;;37.72;16.77;;;-0.80;99.90;;;;;;5088778;28;20536;-61
2022/12/09 19:59:17;;;;;;;41.65;18.67;;;-0.80;99.90;;;;;;5091219;28;20048;-61
2022/12/09 20:01:44;;;;;;;40.92;17.52;;;-0.80;99.90;;;;;;5091706;28;20333;-62
2022/12/09 20:04:19;;;;;;;51.35;19.92;;;-0.80;99.90;;;;;;5091063;28;20105;-60
2022/12/09 20:06:45;;;;;;;40.70;17.80;;;-0.80;99.90;;;;;;5091845;28;20485;-61
2022/12/09 20:09:12;;;;;;;39.17;18.05;;;-0.80;99.90;;;;;;5090747;28;20516;-60
2022/12/09 20:11:40;;;;;;;40.05;20.00;;;-0.90;99.90;;;;;;5091238;28;20028;-61
2022/12/09 20:14:09;;;;;;;45.15;20.63;;;-0.90;99.90;;;;;;5092063;28;20012;-60
2022/12/09 20:16:35;;;;;;;43.90;19.33;;;-0.90;99.90;;;;;;5088689;28;20528;-60
2022/12/09 20:19:01;;;;;;;44.45;18.38;;;-1.00;99.90;;;;;;5091509;28;20028;-61
2022/12/09 20:21:29;;;;;;;29.17;15.43;;;-0.90;99.90;;;;;;5091251;28;20381;-61
2022/12/09 20:23:55;;;;;;;37.83;16.08;;;-1.00;99.90;;;;;;5072876;28;20552;-61
2022/12/09 20:26:24;;;;;;;37.67;15.55;;;-1.00;99.90;;;;;;5085471;28;20059;-60
2022/12/09 20:28:51;;;;;;;40.75;16.55;;;-1.00;99.90;;;;;;5090909;28;20020;-60
2022/12/09 20:31:22;;;;;;;38.17;16.13;;;-1.00;99.90;;;;;;5090580;28;20028;-61
2022/12/09 20:33:53;;;;;;;38.95;16.48;;;-1.00;99.90;;;;;;5072755;28;20016;-61
2022/12/09 20:36:21;;;;;;;38.05;15.52;;;-1.00;99.90;;;;;;5091357;28;20077;-60
2022/12/09 20:38:51;;;;;;;35.42;16.50;;;-1.00;99.90;;;;;;5090862;28;20436;-60
2022/12/09 20:41:18;;;;;;;46.50;18.80;;;-1.00;99.90;;;;;;5091308;28;20500;-60
2022/12/09 20:43:46;;;;;;;42.83;18.20;;;-1.00;99.90;;;;;;5091006;28;20020;-62
2022/12/09 20:46:17;;;;;;;41.35;18.23;;;-1.00;99.90;;;;;;5090803;28;20028;-60
2022/12/09 20:48:43;;;;;;;;;;;-1.10;99.90;;;;;;5091430;28;20089;-61
2022/12/09 20:51:12;;;;;;;39.30;17.92;;;-1.10;99.90;;;;;;5090853;28;19908;-61
2022/12/09 20:53:40;;;;;;;40.72;20.15;;;-1.10;99.90;;;;;;5090127;28;20168;-61
2022/12/09 20:56:06;;;;;;;43.40;20.35;;;-1.20;99.90;;;;;;5072582;28;20453;-61
2022/12/09 20:58:31;;;;;;;42.97;19.20;;;-1.20;99.90;;;;;;5089717;28;20059;-61
2022/12/09 21:01:23;;;;;;;48.55;21.08;;;-1.20;99.90;;;;;;5072593;28;20054;-61
2022/12/09 21:03:50;;;;;;;42.22;18.88;;;-1.30;99.90;;;;;;5072288;28;20027;-61
2022/12/09 21:06:18;;;;;;;44.38;19.77;;;-1.30;99.90;;;;;;5090275;28;20028;-62
2022/12/09 21:08:44;;;;;;;41.05;19.30;;;-1.30;99.90;;;;;;5072573;28;20022;-61
2022/12/09 21:11:13;;;;;;;44.95;20.33;;;-1.30;99.90;;;;;;5072212;28;20039;-64
2022/12/09 21:13:42;;;;;;;38.92;19.42;;;-1.30;99.90;;;;;;5090099;28;20020;-63
2022/12/09 21:16:11;;;;;;;37.00;18.40;;;-1.40;99.90;;;;;;5072839;28;20078;-62
2022/12/09 21:18:37;;;;;;;44.13;21.60;;;-1.40;99.90;;;;;;5090429;28;20111;-62
2022/12/09 21:21:04;;;;;;;44.75;21.63;;;-1.40;99.90;;;;;;5090288;28;20099;-62
2022/12/09 21:23:30;;;;;;;43.78;19.23;;;-1.40;99.90;;;;;;5071796;28;20020;-62
2022/12/09 21:26:01;;;;;;;40.63;20.42;;;-1.40;99.90;;;;;;5090804;28;20032;-61
2022/12/09 21:28:27;;;;;;;50.80;23.90;;;-1.40;99.90;;;;;;5089551;28;20026;-62
2022/12/09 21:30:52;;;;;;;49.50;23.60;;;-1.50;99.90;;;;;;5085106;28;20069;-61
2022/12/09 21:33:18;;;;;;;53.15;25.08;;;-1.50;99.90;;;;;;5091446;28;20024;-62
2022/12/09 21:35:46;;;;;;;44.33;23.73;;;-1.50;99.90;;;;;;5091999;28;20016;-62
2022/12/09 21:38:12;;;;;;;45.10;22.75;;;-1.50;99.90;;;;;;5073974;28;20060;-61
2022/12/09 21:40:38;;;;;;;51.03;23.90;;;-1.50;99.90;;;;;;5073122;28;20028;-61
2022/12/09 21:43:03;;;;;;;52.22;23.83;;;-1.50;99.90;;;;;;5092087;28;20043;-61
2022/12/09 21:45:29;;;;;;;54.50;25.50;;;-1.50;99.90;;;;;;5092050;28;20495;-62
2022/12/09 21:47:55;;;;;;;46.40;22.88;;;-1.50;99.90;;;;;;5091406;28;20024;-61
2022/12/09 21:50:20;;;;;;;55.97;25.48;;;-1.50;99.90;;;;;;5091734;28;20028;-61
2022/12/09 21:52:46;;;;;;;53.72;26.10;;;-1.60;99.90;;;;;;5092066;28;20066;-61
2022/12/09 21:55:11;;;;;;;50.72;22.77;;;-1.60;99.90;;;;;;5091148;28;20028;-61
2022/12/09 21:57:37;;;;;;;46.22;21.95;;;-1.70;99.90;;;;;;5091854;28;20051;-61
2022/12/09 22:00:03;;;;;;;40.17;19.48;;;-1.80;99.90;;;;;;5091507;28;20075;-61
2022/12/09 22:02:29;;;;;;;38.50;19.17;;;-1.80;99.90;;;;;;5090977;28;20073;-61
2022/12/09 22:04:54;;;;;;;39.17;19.02;;;-1.90;99.90;;;;;;5073880;28;20024;-62
2022/12/09 22:07:20;;;;;;;38.80;18.45;;;-1.90;99.90;;;;;;5091593;28;20449;-61
2022/12/09 22:09:48;;;;;;;43.83;20.27;;;-1.90;99.90;;;;;;5091073;28;20012;-63
2022/12/09 22:12:14;;;;;;;49.80;21.02;;;-1.90;99.90;;;;;;5091950;28;20129;-63
2022/12/09 22:14:40;;;;;;;42.30;20.30;;;-2.00;99.90;;;;;;5091534;28;20024;-65
2022/12/09 22:17:05;;;;;;;42.60;20.27;;;-1.90;99.90;;;;;;5090939;28;20073;-64
2022/12/09 22:19:31;;;;;;;42.40;18.80;;;-1.90;99.90;;;;;;5091313;28;20126;-62
2022/12/09 22:21:56;;;;;;;45.22;20.00;;;-1.90;99.90;;;;;;5091416;28;20027;-61
2022/12/09 22:24:22;;;;;;;44.53;19.33;;;-1.90;99.90;;;;;;5090827;28;20107;-64
2022/12/09 22:26:48;;;;;;;41.25;20.17;;;-1.90;99.90;;;;;;5078862;28;20004;-62
2022/12/09 22:29:15;;;;;;;40.72;21.45;;;-1.80;99.90;;;;;;5071133;28;20024;-62
2022/12/09 22:31:42;;;;;;;47.95;19.73;;;-1.80;99.90;;;;;;5070527;28;20017;-63
2022/12/09 22:34:14;;;;;;;42.20;20.45;;;-1.70;99.90;;;;;;5071109;28;20031;-61
2022/12/09 22:36:40;;;;;;;41.75;19.25;;;-1.70;99.90;;;;;;5071192;28;20016;-62
2022/12/09 22:39:10;;;;;;;50.42;22.27;;;-1.70;99.90;;;;;;5073648;28;20032;-63
2022/12/09 22:41:36;;;;;;;46.60;20.88;;;-1.70;99.90;;;;;;5090517;28;20020;-62
2022/12/09 22:44:02;;;;;;;41.15;19.60;;;-1.70;99.90;;;;;;5090149;28;20024;-61
2022/12/09 22:46:29;;;;;;;45.33;20.92;;;-1.70;99.90;;;;;;5091081;28;20043;-61
2022/12/09 22:48:58;;;;;;;43.03;21.08;;;-1.70;99.90;;;;;;5091115;28;20035;-63
2022/12/09 22:51:26;;;;;;;42.35;20.92;;;-1.80;99.90;;;;;;5090381;28;20028;-61
2022/12/09 22:53:53;;;;;;;41.47;21.27;;;-1.80;99.90;;;;;;5091381;28;20105;-61
